Time;durP1;ratioP1;P1;durP2;ratioP2;P2;SDS_P1;SDS_P2;PMS_P1;PMS_P2;Temp;Humidity;BMP_temperature;BMP_pressure;BME280_temperature;BME280_humidity;BME280_pressure;Samples;Min_cycle;Max_cycle;Signal;HPM_P1;HPM_P2
2022/10/22 00:00:07;;;;;;;10.02;6.03;;;15.90;99.90;;;;;;4975312;28;20038;-63
2022/10/22 00:02:33;;;;;;;19.90;7.15;;;17.90;99.90;;;;;;4973994;28;20038;-63
2022/10/22 00:04:59;;;;;;;15.57;6.40;;;16.70;99.90;;;;;;4952591;28;20054;-63
2022/10/22 00:07:24;;;;;;;9.95;6.43;;;16.00;99.90;;;;;;4952663;29;20078;-64
2022/10/22 00:09:50;;;;;;;12.43;7.00;;;17.80;99.90;;;;;;4922652;29;20039;-62
2022/10/22 00:12:16;;;;;;;12.38;7.03;;;16.70;99.90;;;;;;4938718;29;20075;-62
2022/10/22 00:14:42;;;;;;;9.48;6.43;;;16.00;99.90;;;;;;4965305;28;20536;-64
2022/10/22 00:17:07;;;;;;;11.43;6.68;;;16.20;99.90;;;;;;4957722;28;20090;-63
2022/10/22 00:19:33;;;;;;;13.23;6.78;;;15.80;99.90;;;;;;4974967;28;20053;-62
2022/10/22 00:21:58;;;;;;;12.63;6.55;;;18.30;99.90;;;;;;4971560;28;20042;-62
2022/10/22 00:24:25;;;;;;;10.27;6.57;;;16.20;99.90;;;;;;4965818;28;20081;-63
2022/10/22 00:26:51;;;;;;;8.90;6.45;;;15.70;99.90;;;;;;4957131;28;20039;-63
2022/10/22 00:29:19;;;;;;;10.05;6.38;;;17.60;99.90;;;;;;4949199;29;20046;-62
2022/10/22 00:31:48;;;;;;;9.85;6.38;;;17.70;99.90;;;;;;4955775;29;20047;-62
2022/10/22 00:34:16;;;;;;;11.88;6.20;;;17.80;99.90;;;;;;4964223;28;20049;-62
2022/10/22 00:36:41;;;;;;;15.15;6.95;;;17.80;99.90;;;;;;4974613;28;20162;-62
2022/10/22 00:39:07;;;;;;;10.18;5.57;;;16.50;99.90;;;;;;4962855;28;20117;-62
2022/10/22 00:41:33;;;;;;;18.17;6.43;;;16.40;99.90;;;;;;4938225;29;20126;-62
2022/10/22 00:44:02;;;;;;;15.35;6.93;;;16.60;99.90;;;;;;4961267;28;20039;-62
2022/10/22 00:46:28;;;;;;;11.73;6.47;;;17.30;99.90;;;;;;4963669;28;20070;-63
2022/10/22 00:48:55;;;;;;;16.92;7.22;;;17.70;99.90;;;;;;4955728;28;21608;-63
2022/10/22 00:51:24;;;;;;;12.27;6.20;;;15.70;99.90;;;;;;4972541;28;20043;-63
2022/10/22 00:53:54;;;;;;;8.23;5.35;;;17.60;99.90;;;;;;4972752;28;20039;-62
2022/10/22 00:56:21;;;;;;;8.00;5.63;;;18.00;99.90;;;;;;4974457;28;20508;-62
2022/10/22 00:58:51;;;;;;;12.15;6.65;;;17.40;99.90;;;;;;4972904;28;20034;-63
2022/10/22 01:01:20;;;;;;;8.75;6.25;;;17.70;99.90;;;;;;4955548;28;20082;-62
2022/10/22 01:03:47;;;;;;;10.60;6.13;;;17.00;99.90;;;;;;4956842;28;20046;-62
2022/10/22 01:06:23;;;;;;;8.45;5.43;;;15.60;99.90;;;;;;4941002;28;20146;-62
2022/10/22 01:09:16;;;;;;;8.48;5.70;;;17.60;99.90;;;;;;4954714;28;20572;-62
2022/10/22 01:12:21;;;;;;;17.40;6.43;;;18.10;99.90;;;;;;4953580;28;20404;-63
2022/10/22 01:15:05;;;;;;;9.45;5.32;;;18.30;99.90;;;;;;4964864;28;20839;-62
2022/10/22 01:17:45;;;;;;;8.50;5.47;;;18.30;99.90;;;;;;4956447;28;20046;-62
2022/10/22 01:20:44;;;;;;;9.07;5.40;;;18.40;99.90;;;;;;4966332;28;20134;-63
2022/10/22 01:23:47;;;;;;;14.65;5.53;;;17.30;99.90;;;;;;4954677;28;20469;-64
2022/10/22 01:26:36;;;;;;;8.75;5.30;;;18.20;99.90;;;;;;4955804;28;20173;-63
2022/10/22 01:29:35;;;;;;;10.85;5.68;;;16.30;99.90;;;;;;4954690;28;20413;-62
2022/10/22 01:32:06;;;;;;;8.93;5.68;;;15.90;99.90;;;;;;4954414;29;20047;-62
2022/10/22 01:34:33;;;;;;;9.95;5.90;;;16.70;99.90;;;;;;4940213;28;20398;-63
2022/10/22 01:37:00;;;;;;;9.98;4.40;;;17.40;99.90;;;;;;4944723;29;20059;-62
2022/10/22 01:39:28;;;;;;;12.52;5.45;;;17.60;99.90;;;;;;4937158;29;20044;-63
2022/10/22 01:41:55;;;;;;;10.50;5.90;;;18.00;99.90;;;;;;4951988;28;20059;-63
2022/10/22 01:44:30;;;;;;;14.57;6.40;;;18.10;99.90;;;;;;4956095;28;20039;-62
2022/10/22 01:47:19;;;;;;;9.85;5.85;;;18.50;99.90;;;;;;4965555;28;20055;-63
2022/10/22 01:50:03;;;;;;;16.70;5.90;;;16.80;99.90;;;;;;4954429;29;20039;-62
2022/10/22 01:52:59;;;;;;;10.05;5.22;;;18.50;99.90;;;;;;4961507;28;20138;-62
2022/10/22 01:55:42;;;;;;;8.63;5.30;;;18.30;99.90;;;;;;4971404;28;20047;-63
2022/10/22 01:58:19;;;;;;;12.65;4.85;;;17.60;99.90;;;;;;4962739;28;20098;-63
2022/10/22 02:01:03;;;;;;;11.30;5.30;;;16.30;99.90;;;;;;4936910;29;20047;-62
2022/10/22 02:03:38;;;;;;;12.68;5.20;;;16.30;99.90;;;;;;4960968;28;20035;-63
2022/10/22 02:06:11;;;;;;;14.43;6.13;;;16.30;99.90;;;;;;4973471;28;20057;-63
2022/10/22 02:08:38;;;;;;;9.35;5.50;;;18.00;99.90;;;;;;4971041;28;20054;-63
2022/10/22 02:11:04;;;;;;;10.95;5.95;;;18.90;99.90;;;;;;4955722;28;20098;-62
2022/10/22 02:13:36;;;;;;;13.32;5.10;;;18.60;99.90;;;;;;4972914;28;20440;-62
2022/10/22 02:16:05;;;;;;;8.13;4.68;;;17.00;99.90;;;;;;4947170;29;20185;-62
2022/10/22 02:18:33;;;;;;;12.30;4.95;;;18.60;99.90;;;;;;4954033;29;20055;-63
2022/10/22 02:20:59;;;;;;;12.57;4.80;;;17.90;99.90;;;;;;4968449;28;20074;-63
2022/10/22 02:23:25;;;;;;;9.98;5.05;;;18.50;99.90;;;;;;4954367;28;20571;-64
2022/10/22 02:25:59;;;;;;;15.88;5.57;;;18.80;99.90;;;;;;4952813;28;20039;-63
2022/10/22 02:28:36;;;;;;;13.48;5.28;;;16.50;99.90;;;;;;4936131;29;20532;-62
2022/10/22 02:31:13;;;;;;;13.30;5.03;;;19.30;99.90;;;;;;4964237;28;20125;-62
2022/10/22 02:33:47;;;;;;;8.90;5.20;;;19.30;99.90;;;;;;4972728;28;20046;-62
2022/10/22 02:36:14;;;;;;;12.35;5.68;;;18.50;99.90;;;;;;4967513;28;20038;-62
2022/10/22 02:38:41;;;;;;;10.18;5.18;;;17.50;99.90;;;;;;4958157;28;20449;-63
2022/10/22 02:41:07;;;;;;;11.50;5.32;;;16.60;99.90;;;;;;4966970;28;20046;-63
2022/10/22 02:43:41;;;;;;;13.35;5.22;;;19.40;99.90;;;;;;4954122;28;20118;-62
2022/10/22 02:46:07;;;;;;;12.60;5.50;;;16.70;99.90;;;;;;4970640;28;20492;-62
2022/10/22 02:48:33;;;;;;;14.48;5.60;;;19.00;99.90;;;;;;4966269;28;20065;-63
2022/10/22 02:50:58;;;;;;;9.63;4.75;;;18.10;99.90;;;;;;4955937;28;20149;-63
2022/10/22 02:53:24;;;;;;;15.80;5.30;;;19.60;99.90;;;;;;4952756;28;20049;-62
2022/10/22 02:55:49;;;;;;;14.52;5.07;;;19.50;99.90;;;;;;4955176;28;20038;-63
2022/10/22 02:58:15;;;;;;;13.73;5.20;;;17.00;99.90;;;;;;4967526;28;20039;-63
2022/10/22 03:00:40;;;;;;;11.20;4.78;;;16.80;99.90;;;;;;4972761;28;20074;-63
2022/10/22 03:03:06;;;;;;;13.63;5.10;;;19.50;99.90;;;;;;4933620;29;20055;-63
2022/10/22 03:05:32;;;;;;;9.88;4.95;;;18.20;99.90;;;;;;4952221;29;20047;-63
2022/10/22 03:07:57;;;;;;;16.63;4.93;;;19.50;99.90;;;;;;4965344;28;20031;-63
2022/10/22 03:10:23;;;;;;;12.43;4.70;;;17.90;99.90;;;;;;4953903;28;20130;-66
2022/10/22 03:12:48;;;;;;;10.93;4.32;;;18.90;99.90;;;;;;4956151;28;20170;-63
2022/10/22 03:15:14;;;;;;;13.10;4.82;;;17.10;99.90;;;;;;4939419;28;20043;-63
2022/10/22 03:17:39;;;;;;;17.50;5.10;;;16.70;99.90;;;;;;4954864;28;20058;-63
2022/10/22 03:20:05;;;;;;;9.30;4.72;;;18.30;99.90;;;;;;4972309;28;20058;-63
2022/10/22 03:22:34;;;;;;;10.13;4.45;;;16.80;99.90;;;;;;4969499;28;20412;-63
2022/10/22 03:25:06;;;;;;;9.25;4.43;;;17.50;99.90;;;;;;4972027;28;20416;-62
2022/10/22 03:27:34;;;;;;;14.60;4.65;;;16.60;99.90;;;;;;4954882;28;20046;-63
2022/10/22 03:30:00;;;;;;;8.75;5.13;;;17.40;99.90;;;;;;4972005;28;20071;-62
2022/10/22 03:32:26;;;;;;;12.50;4.90;;;19.20;99.90;;;;;;4967447;28;20071;-62
2022/10/22 03:34:51;;;;;;;15.60;5.30;;;17.60;99.90;;;;;;4954451;28;20082;-63
2022/10/22 03:37:17;;;;;;;10.57;5.13;;;16.70;99.90;;;;;;4969416;28;20042;-63
2022/10/22 03:39:43;;;;;;;12.63;4.80;;;16.70;99.90;;;;;;4974282;28;20046;-63
2022/10/22 03:42:10;;;;;;;13.50;5.18;;;17.70;99.90;;;;;;4969283;28;20038;-63
2022/10/22 03:44:37;;;;;;;9.65;4.40;;;18.90;99.90;;;;;;4957222;28;20146;-63
2022/10/22 03:47:03;;;;;;;18.92;4.88;;;18.80;99.90;;;;;;4975637;28;20039;-63
2022/10/22 03:49:29;;;;;;;12.82;4.85;;;19.00;99.90;;;;;;4975138;28;20038;-63
2022/10/22 03:51:54;;;;;;;11.30;5.10;;;19.10;99.90;;;;;;4933827;29;20058;-62
2022/10/22 03:54:20;;;;;;;6.20;3.70;;;16.60;99.90;;;;;;4939099;28;20039;-63
2022/10/22 03:56:45;;;;;;;14.45;5.15;;;18.20;99.90;;;;;;4956851;28;20113;-63
2022/10/22 03:59:12;;;;;;;15.65;4.05;;;16.60;99.90;;;;;;4975382;28;20045;-63
2022/10/22 04:01:38;;;;;;;16.52;4.05;;;18.50;99.90;;;;;;4971552;28;20050;-62
2022/10/22 04:04:03;;;;;;;13.48;4.10;;;16.60;99.90;;;;;;4955392;28;20501;-63
2022/10/22 04:06:29;;;;;;;13.70;4.03;;;18.80;99.90;;;;;;4969722;28;20050;-62
2022/10/22 04:08:55;;;;;;;10.40;4.13;;;16.80;99.90;;;;;;4956997;28;20408;-63
2022/10/22 04:11:21;;;;;;;15.35;4.38;;;17.50;99.90;;;;;;4974867;28;20073;-63
2022/10/22 04:13:46;;;;;;;14.18;4.15;;;19.00;99.90;;;;;;4958630;28;20043;-63
2022/10/22 04:16:17;;;;;;;10.52;3.78;;;18.30;99.90;;;;;;4955776;29;20083;-63
2022/10/22 04:18:44;;;;;;;13.30;3.72;;;17.90;99.90;;;;;;4938740;29;20092;-63
2022/10/22 04:21:12;;;;;;;12.75;3.78;;;16.60;99.90;;;;;;4970776;28;20464;-64
2022/10/22 04:23:38;;;;;;;7.72;3.63;;;19.00;99.90;;;;;;4944830;28;20043;-63
2022/10/22 04:26:05;;;;;;;7.80;3.33;;;19.00;99.90;;;;;;4973036;28;20070;-63
2022/10/22 04:28:32;;;;;;;12.48;4.25;;;19.00;99.90;;;;;;4974606;28;20045;-63
2022/10/22 04:30:57;;;;;;;7.68;3.22;;;19.30;99.90;;;;;;4973550;28;20125;-63
2022/10/22 04:33:23;;;;;;;16.63;4.50;;;19.20;99.90;;;;;;4952844;28;20465;-63
2022/10/22 04:35:49;;;;;;;12.07;4.18;;;16.90;99.90;;;;;;4957804;28;20068;-62
2022/10/22 04:38:14;;;;;;;16.52;4.32;;;16.80;99.90;;;;;;4974448;28;20093;-63
2022/10/22 04:40:40;;;;;;;10.95;3.78;;;17.40;99.90;;;;;;4960464;28;20043;-62
2022/10/22 04:43:06;;;;;;;11.73;3.47;;;16.80;99.90;;;;;;4967963;28;20383;-63
2022/10/22 04:45:33;;;;;;;14.60;3.95;;;18.00;99.90;;;;;;4957237;28;20074;-63
2022/10/22 04:47:58;;;;;;;13.13;4.30;;;19.00;99.90;;;;;;4956470;28;20101;-62
2022/10/22 04:50:24;;;;;;;12.55;3.70;;;17.10;99.90;;;;;;4957288;28;20046;-63
2022/10/22 04:52:49;;;;;;;12.90;3.50;;;19.00;99.90;;;;;;4968912;28;20035;-63
2022/10/22 04:55:15;;;;;;;9.50;3.47;;;17.10;99.90;;;;;;4951360;29;20047;-62
2022/10/22 04:57:40;;;;;;;16.52;3.42;;;17.10;99.90;;;;;;4952460;28;20047;-63
2022/10/22 05:00:07;;;;;;;12.40;3.75;;;19.10;99.90;;;;;;4956771;28;20058;-63
2022/10/22 05:02:32;;;;;;;10.98;3.78;;;17.10;99.90;;;;;;4969495;28;20090;-63
2022/10/22 05:04:58;;;;;;;13.05;4.38;;;19.40;99.90;;;;;;4969730;28;20077;-63
2022/10/22 05:07:24;;;;;;;12.15;4.07;;;16.90;99.90;;;;;;4963466;28;20158;-64
2022/10/22 05:09:49;;;;;;;12.73;3.45;;;17.50;99.90;;;;;;4963589;28;20050;-64
2022/10/22 05:12:15;;;;;;;8.63;3.58;;;18.30;99.90;;;;;;4967612;28;20078;-67
2022/10/22 05:14:40;;;;;;;11.50;3.75;;;17.50;99.90;;;;;;4961215;28;20512;-65
2022/10/22 05:17:06;;;;;;;11.55;3.85;;;17.10;99.90;;;;;;4965223;28;20057;-63
2022/10/22 05:19:32;;;;;;;13.68;3.90;;;17.20;99.90;;;;;;4956589;28;20529;-65
2022/10/22 05:22:00;;;;;;;11.00;3.50;;;18.50;99.90;;;;;;4931952;28;20046;-63
2022/10/22 05:24:27;;;;;;;11.10;3.60;;;17.00;99.90;;;;;;4947190;28;20090;-63
2022/10/22 05:26:55;;;;;;;11.77;4.05;;;17.40;99.90;;;;;;4968045;28;20105;-63
2022/10/22 05:29:22;;;;;;;17.88;4.53;;;18.40;99.90;;;;;;4953818;28;20046;-62
2022/10/22 05:31:47;;;;;;;15.38;4.03;;;19.40;99.90;;;;;;4947485;28;20058;-62
2022/10/22 05:34:13;;;;;;;12.48;3.55;;;18.80;99.90;;;;;;4955172;28;20047;-62
2022/10/22 05:36:39;;;;;;;12.13;3.85;;;18.30;99.90;;;;;;4971977;28;20042;-63
2022/10/22 05:39:05;;;;;;;14.77;3.70;;;19.40;99.90;;;;;;4954047;28;20051;-63
2022/10/22 05:41:32;;;;;;;7.20;3.40;;;17.70;99.90;;;;;;4948073;28;20070;-61
2022/10/22 05:43:58;;;;;;;10.93;3.55;;;18.00;99.90;;;;;;4970289;28;20497;-63
2022/10/22 05:46:26;;;;;;;14.25;4.22;;;17.60;99.90;;;;;;4970863;28;20035;-65
2022/10/22 05:48:54;;;;;;;8.38;3.50;;;17.30;99.90;;;;;;4969238;28;20086;-64
2022/10/22 05:51:21;;;;;;;13.88;3.80;;;19.50;99.90;;;;;;4967000;28;20070;-63
2022/10/22 05:54:00;;;;;;;12.82;3.88;;;19.30;99.90;;;;;;4969451;28;20447;-62
2022/10/22 05:56:27;;;;;;;10.95;3.55;;;17.00;99.90;;;;;;4968160;28;20039;-63
2022/10/22 05:58:52;;;;;;;11.95;3.97;;;17.30;99.90;;;;;;4961164;28;20039;-63
2022/10/22 06:01:22;;;;;;;10.82;3.45;;;19.00;99.90;;;;;;4959858;28;20098;-63
2022/10/22 06:03:48;;;;;;;18.70;3.90;;;19.20;99.90;;;;;;4966249;28;20042;-63
2022/10/22 06:06:22;;;;;;;14.85;4.18;;;18.80;99.90;;;;;;4963302;28;20466;-63
2022/10/22 06:08:50;;;;;;;11.48;4.00;;;17.80;99.90;;;;;;4949711;29;20043;-63
2022/10/22 06:11:17;;;;;;;12.88;3.78;;;17.50;99.90;;;;;;4939852;28;20122;-63
2022/10/22 06:13:47;;;;;;;6.70;3.22;;;16.90;99.90;;;;;;4956862;28;20027;-62
2022/10/22 06:16:13;;;;;;;10.45;3.63;;;18.00;99.90;;;;;;4963611;28;20125;-63
2022/10/22 06:18:39;;;;;;;15.63;3.92;;;19.40;99.90;;;;;;4971703;28;20043;-63
2022/10/22 06:21:09;;;;;;;15.90;4.00;;;18.10;99.90;;;;;;4960927;28;20047;-64
2022/10/22 06:23:36;;;;;;;8.63;3.40;;;18.60;99.90;;;;;;4968974;28;20043;-63
2022/10/22 06:26:01;;;;;;;16.95;3.40;;;19.00;99.90;;;;;;4948714;28;20486;-63
2022/10/22 06:28:27;;;;;;;10.68;3.85;;;18.20;99.90;;;;;;4966446;28;20045;-63
2022/10/22 06:30:53;;;;;;;15.05;3.58;;;16.80;99.90;;;;;;4961243;28;20107;-64
2022/10/22 06:33:18;;;;;;;10.18;4.10;;;18.40;99.90;;;;;;4963337;28;20519;-63
2022/10/22 06:35:44;;;;;;;16.17;4.28;;;18.80;99.90;;;;;;4966066;28;20273;-63
2022/10/22 06:38:10;;;;;;;13.77;4.50;;;17.40;99.90;;;;;;4970611;28;20041;-65
2022/10/22 06:40:35;;;;;;;13.13;4.07;;;18.70;99.90;;;;;;4973040;28;20049;-63
2022/10/22 06:43:01;;;;;;;17.65;4.40;;;16.70;99.90;;;;;;4944065;28;20042;-64
2022/10/22 06:45:27;;;;;;;10.25;3.47;;;19.10;99.90;;;;;;4957512;28;20378;-63
2022/10/22 06:47:52;;;;;;;13.38;3.88;;;17.20;99.90;;;;;;4921885;29;20098;-63
2022/10/22 06:50:18;;;;;;;15.45;3.63;;;18.80;99.90;;;;;;4943707;28;20053;-63
2022/10/22 06:52:44;;;;;;;11.40;3.65;;;18.70;99.90;;;;;;4970050;28;20134;-64
2022/10/22 06:55:10;;;;;;;13.35;3.60;;;17.00;99.90;;;;;;4972097;28;20470;-63
2022/10/22 06:57:35;;;;;;;19.45;4.10;;;16.70;99.90;;;;;;4948931;29;20054;-63
2022/10/22 07:00:01;;;;;;;14.02;3.92;;;16.70;99.90;;;;;;4954155;28;20556;-64
2022/10/22 07:02:26;;;;;;;10.70;4.25;;;16.60;99.90;;;;;;4963756;28;20393;-63
2022/10/22 07:04:52;;;;;;;10.75;3.72;;;17.60;99.90;;;;;;4955276;28;20078;-64
2022/10/22 07:07:17;;;;;;;12.27;4.22;;;18.60;99.90;;;;;;4972791;28;20038;-63
2022/10/22 07:09:45;;;;;;;13.45;3.88;;;16.70;99.90;;;;;;4971358;28;20041;-63
2022/10/22 07:12:12;;;;;;;14.05;4.07;;;16.60;99.90;;;;;;4965114;28;20066;-63
2022/10/22 07:14:38;;;;;;;13.70;3.97;;;18.00;99.90;;;;;;4956931;29;20062;-63
2022/10/22 07:17:03;;;;;;;16.00;4.82;;;18.50;99.90;;;;;;4958628;28;20047;-63
2022/10/22 07:19:30;;;;;;;11.18;3.95;;;17.10;99.90;;;;;;4974479;28;20039;-63
2022/10/22 07:21:56;;;;;;;9.60;3.90;;;19.30;99.90;;;;;;4958078;28;20125;-64
2022/10/22 07:24:21;;;;;;;15.50;3.75;;;17.10;99.90;;;;;;4975054;28;20201;-63
2022/10/22 07:26:47;;;;;;;13.98;3.80;;;17.90;99.90;;;;;;4976325;28;20509;-64
2022/10/22 07:29:14;;;;;;;10.15;3.55;;;17.30;99.90;;;;;;4965566;28;20039;-63
2022/10/22 07:31:40;;;;;;;11.95;3.90;;;17.90;99.90;;;;;;4951636;28;20055;-65
2022/10/22 07:34:06;;;;;;;9.38;3.92;;;17.90;99.90;;;;;;4976212;28;20551;-64
2022/10/22 07:36:31;;;;;;;11.82;3.33;;;19.20;99.90;;;;;;4975926;28;20046;-63
2022/10/22 07:38:58;;;;;;;12.45;4.07;;;17.70;99.90;;;;;;4958856;28;20089;-63
2022/10/22 07:41:25;;;;;;;15.02;4.25;;;18.10;99.90;;;;;;4962402;28;20127;-63
2022/10/22 07:43:51;;;;;;;14.55;4.00;;;17.80;99.90;;;;;;4965492;28;20053;-64
2022/10/22 07:46:17;;;;;;;12.18;3.38;;;18.40;99.90;;;;;;4974114;28;20043;-65
2022/10/22 07:48:43;;;;;;;11.70;3.38;;;17.60;99.90;;;;;;4975506;28;20035;-63
2022/10/22 07:51:08;;;;;;;11.55;3.50;;;17.70;99.90;;;;;;4958309;28;20436;-64
2022/10/22 07:53:34;;;;;;;12.27;4.18;;;17.60;99.90;;;;;;4958567;28;20078;-65
2022/10/22 07:56:00;;;;;;;12.27;3.72;;;18.00;99.90;;;;;;4975919;28;20043;-64
2022/10/22 07:58:25;;;;;;;22.15;4.18;;;17.80;99.90;;;;;;4971937;28;20047;-64
2022/10/22 08:00:55;;;;;;;9.30;3.22;;;20.20;99.90;;;;;;4923777;29;20054;-64
2022/10/22 08:03:20;;;;;;;15.02;4.38;;;19.60;99.90;;;;;;4959269;28;20043;-64
2022/10/22 08:05:46;;;;;;;13.15;3.40;;;19.30;99.90;;;;;;4972963;28;20037;-64
2022/10/22 08:08:13;;;;;;;12.48;3.60;;;18.20;99.90;;;;;;4965999;28;20392;-65
2022/10/22 08:10:40;;;;;;;12.50;2.97;;;19.40;99.90;;;;;;4956303;28;20544;-64
2022/10/22 08:13:06;;;;;;;11.20;3.08;;;20.30;99.90;;;;;;4975347;28;20489;-65
2022/10/22 08:15:31;;;;;;;14.40;3.40;;;19.70;99.90;;;;;;4972810;28;20043;-64
2022/10/22 08:17:57;;;;;;;6.53;3.10;;;20.40;99.90;;;;;;4942472;29;20050;-64
2022/10/22 08:20:23;;;;;;;12.10;3.15;;;19.10;99.90;;;;;;4948552;28;20150;-64
2022/10/22 08:22:48;;;;;;;11.38;3.25;;;20.10;99.90;;;;;;4956897;28;20050;-65
2022/10/22 08:25:14;;;;;;;5.72;2.90;;;18.80;99.90;;;;;;4942077;29;20500;-65
2022/10/22 08:27:40;;;;;;;15.90;3.65;;;18.60;99.90;;;;;;4959137;28;20027;-64
2022/10/22 08:30:06;;;;;;;9.18;2.92;;;18.30;99.90;;;;;;4938423;29;20259;-64
2022/10/22 08:32:32;;;;;;;9.13;2.58;;;20.50;99.90;;;;;;4947761;28;20481;-64
2022/10/22 08:34:57;;;;;;;10.32;2.63;;;20.00;99.90;;;;;;4924733;28;20049;-65
2022/10/22 08:37:23;;;;;;;8.73;3.03;;;18.90;99.90;;;;;;4954829;28;20113;-64
2022/10/22 08:39:48;;;;;;;12.45;3.22;;;18.90;99.90;;;;;;4957487;28;20053;-65
2022/10/22 08:42:34;;;;;;;10.73;2.88;;;20.10;99.90;;;;;;4946895;29;20484;-64
2022/10/22 08:45:23;;;;;;;10.38;3.10;;;20.40;99.90;;;;;;4938438;29;20488;-65
2022/10/22 08:47:52;;;;;;;13.32;3.33;;;19.40;99.90;;;;;;4956156;28;20046;-64
2022/10/22 08:50:28;;;;;;;14.85;3.00;;;19.50;99.90;;;;;;4957802;28;20039;-64
2022/10/22 08:52:57;;;;;;;5.50;2.60;;;18.40;99.90;;;;;;4957558;28;20051;-64
2022/10/22 08:55:24;;;;;;;15.95;3.70;;;18.70;99.90;;;;;;4973658;28;20031;-64
2022/10/22 08:58:34;;;;;;;9.57;3.17;;;20.00;99.90;;;;;;4970932;28;20041;-68
2022/10/22 09:01:13;;;;;;;14.38;3.72;;;18.90;99.90;;;;;;4955377;28;20189;-65
2022/10/22 09:03:59;;;;;;;11.80;3.45;;;18.80;99.90;;;;;;4952665;28;20046;-66
2022/10/22 09:06:27;;;;;;;12.93;2.55;;;18.90;99.90;;;;;;4948417;28;20038;-64
2022/10/22 09:08:53;;;;;;;11.13;3.42;;;19.60;99.90;;;;;;4955295;28;20049;-65
2022/10/22 09:11:35;;;;;;;10.48;2.90;;;20.40;99.90;;;;;;4973098;28;20411;-65
2022/10/22 09:14:02;;;;;;;10.15;3.17;;;19.20;99.90;;;;;;4956872;28;20092;-64
2022/10/22 09:17:12;;;;;;;11.27;2.63;;;19.80;99.90;;;;;;4956589;28;20500;-64
2022/10/22 09:19:55;;;;;;;8.98;3.38;;;20.70;99.90;;;;;;4949889;29;20066;-67
2022/10/22 09:22:36;;;;;;;13.95;3.40;;;18.90;99.90;;;;;;4953278;28;20046;-65
2022/10/22 09:25:24;;;;;;;11.43;3.35;;;18.90;99.90;;;;;;4947549;28;20039;-64
2022/10/22 09:27:52;;;;;;;13.43;3.05;;;20.30;99.90;;;;;;4925864;29;20371;-66
2022/10/22 09:30:23;;;;;;;11.25;3.28;;;19.60;99.90;;;;;;4955595;28;20603;-64
2022/10/22 09:33:16;;;;;;;10.88;3.45;;;20.30;99.90;;;;;;4955493;28;20125;-66
2022/10/22 09:35:56;;;;;;;11.75;4.03;;;19.00;99.90;;;;;;4969057;28;20058;-63
2022/10/22 09:38:31;;;;;;;13.18;3.78;;;19.00;99.90;;;;;;4972673;28;20101;-65
2022/10/22 09:40:58;;;;;;;12.90;3.50;;;19.60;99.90;;;;;;4974126;28;20050;-65
2022/10/22 09:43:24;;;;;;;18.67;3.95;;;20.90;99.90;;;;;;4956231;28;20078;-66
2022/10/22 09:46:02;;;;;;;11.27;3.08;;;19.50;99.90;;;;;;4972049;28;20440;-65
2022/10/22 09:48:38;;;;;;;10.13;3.15;;;19.50;99.90;;;;;;4956179;28;20073;-64
2022/10/22 09:51:03;;;;;;;9.13;2.97;;;19.50;99.90;;;;;;4974088;28;20125;-66
2022/10/22 09:53:37;;;;;;;14.07;3.63;;;19.70;99.90;;;;;;4946465;29;20664;-67
2022/10/22 09:56:26;;;;;;;18.95;3.90;;;19.40;99.90;;;;;;4954437;29;20417;-65
2022/10/22 09:58:55;;;;;;;10.63;3.80;;;19.30;99.90;;;;;;4937027;29;20501;-64
2022/10/22 10:01:31;;;;;;;10.63;3.67;;;20.10;99.90;;;;;;4940273;28;20419;-65
2022/10/22 10:04:14;;;;;;;17.58;3.50;;;20.60;99.90;;;;;;4954262;28;20054;-65
2022/10/22 10:06:42;;;;;;;12.82;3.75;;;20.60;99.90;;;;;;4947774;28;20525;-65
2022/10/22 10:09:18;;;;;;;8.10;3.10;;;21.20;99.90;;;;;;4955481;28;20121;-64
2022/10/22 10:11:56;;;;;;;;;;;20.90;99.90;;;;;;4956987;28;20082;-65
2022/10/22 10:14:42;;;;;;;14.95;3.60;;;19.50;99.90;;;;;;4955375;28;20278;-65
2022/10/22 10:17:30;;;;;;;14.68;3.55;;;20.30;99.90;;;;;;4955771;28;20050;-65
2022/10/22 10:20:23;;;;;;;10.40;3.17;;;19.50;99.90;;;;;;4954807;28;20057;-67
2022/10/22 10:23:02;;;;;;;9.20;2.50;;;19.00;99.90;;;;;;4937116;28;20047;-65
2022/10/22 10:25:32;;;;;;;8.23;2.60;;;20.70;99.90;;;;;;4973310;28;20039;-64
2022/10/22 10:28:19;;;;;;;13.60;3.95;;;18.60;99.90;;;;;;4960601;28;20079;-65
2022/10/22 10:31:08;;;;;;;12.60;2.95;;;18.50;99.90;;;;;;4936749;29;20043;-64
2022/10/22 10:33:46;;;;;;;8.30;3.20;;;20.30;99.90;;;;;;4945755;28;20047;-65
2022/10/22 10:36:11;;;;;;;11.05;3.00;;;19.10;99.90;;;;;;4954533;28;20185;-66
2022/10/22 10:38:44;;;;;;;13.23;3.35;;;21.10;99.90;;;;;;4948024;28;20133;-65
2022/10/22 10:41:41;;;;;;;8.60;3.20;;;19.90;99.90;;;;;;4973220;28;20054;-65
2022/10/22 10:44:45;;;;;;;10.13;2.80;;;20.60;99.90;;;;;;4955708;28;20525;-65
2022/10/22 10:47:52;;;;;;;10.15;2.70;;;21.10;99.90;;;;;;4972105;28;20042;-65
2022/10/22 10:50:27;;;;;;;9.73;3.53;;;19.80;99.90;;;;;;4931101;28;20558;-65
2022/10/22 10:53:12;;;;;;;11.13;4.07;;;18.80;99.90;;;;;;4954578;28;20038;-64
2022/10/22 10:55:48;;;;;;;8.38;3.72;;;21.30;99.90;;;;;;4973190;28;20085;-65
2022/10/22 10:58:29;;;;;;;12.65;3.75;;;19.30;99.90;;;;;;4955648;28;20048;-64
2022/10/22 11:01:01;;;;;;;10.35;3.63;;;20.80;99.90;;;;;;4970525;28;20097;-65
2022/10/22 11:03:54;;;;;;;8.23;3.03;;;21.30;99.90;;;;;;4969619;28;20100;-65
2022/10/22 11:06:20;;;;;;;9.32;2.60;;;20.00;99.90;;;;;;4969491;28;20563;-65
2022/10/22 11:09:01;;;;;;;15.40;2.70;;;20.50;99.90;;;;;;4972597;28;20047;-65
2022/10/22 11:11:43;;;;;;;11.95;2.33;;;19.30;99.90;;;;;;4942539;29;20563;-65
2022/10/22 11:14:10;;;;;;;9.95;1.83;;;20.90;99.90;;;;;;4936234;29;20661;-64
2022/10/22 11:16:39;;;;;;;7.18;1.77;;;19.80;99.90;;;;;;4947597;28;20058;-65
2022/10/22 11:19:29;;;;;;;14.95;2.35;;;18.70;99.90;;;;;;4955269;28;20090;-66
2022/10/22 11:22:05;;;;;;;12.30;2.28;;;19.10;99.90;;;;;;4942637;28;20054;-65
2022/10/22 11:24:50;;;;;;;11.77;2.17;;;19.90;99.90;;;;;;4952284;29;20556;-65
2022/10/22 11:27:37;;;;;;;9.60;2.40;;;20.90;99.90;;;;;;4935516;29;20055;-65
2022/10/22 11:30:16;;;;;;;11.13;2.63;;;19.40;99.90;;;;;;4935999;29;20039;-66
2022/10/22 11:32:46;;;;;;;13.27;2.33;;;19.20;99.90;;;;;;4950676;28;20039;-65
2022/10/22 11:35:15;;;;;;;13.13;2.85;;;18.80;99.90;;;;;;4971387;28;20035;-65
2022/10/22 11:37:43;;;;;;;11.73;2.08;;;21.20;99.90;;;;;;4941046;29;20078;-65
2022/10/22 11:40:20;;;;;;;11.10;2.05;;;18.90;99.90;;;;;;4936375;29;20051;-65
2022/10/22 11:43:07;;;;;;;13.05;2.20;;;19.10;99.90;;;;;;4920247;29;20047;-65
2022/10/22 11:45:41;;;;;;;7.90;2.10;;;20.60;99.90;;;;;;4935755;29;20082;-66
2022/10/22 11:48:17;;;;;;;12.70;2.75;;;21.30;99.90;;;;;;4972453;28;20126;-65
2022/10/22 11:50:49;;;;;;;11.50;2.05;;;21.10;99.90;;;;;;4954699;28;20050;-65
2022/10/22 11:53:24;;;;;;;9.38;2.28;;;20.60;99.90;;;;;;4955588;28;20596;-65
2022/10/22 11:55:51;;;;;;;15.20;3.22;;;21.20;99.90;;;;;;4971247;28;20046;-66
2022/10/22 11:58:38;;;;;;;14.35;2.45;;;19.50;99.90;;;;;;4949909;28;20118;-65
2022/10/22 12:01:06;;;;;;;;;;;20.00;99.90;;;;;;4951969;28;20078;-65
2022/10/22 12:03:31;;;;;;;10.40;2.00;;;20.10;99.90;;;;;;4967047;28;20384;-65
2022/10/22 12:06:14;;;;;;;13.45;2.15;;;21.00;99.90;;;;;;4965244;28;20039;-64
2022/10/22 12:08:51;;;;;;;10.38;2.30;;;20.10;99.90;;;;;;4970662;28;20039;-64
2022/10/22 12:11:38;;;;;;;14.25;2.10;;;19.90;99.90;;;;;;4952485;28;20100;-65
2022/10/22 12:14:30;;;;;;;12.55;2.50;;;20.00;99.90;;;;;;4946346;28;20101;-65
2022/10/22 12:17:04;;;;;;;13.70;2.88;;;21.40;99.90;;;;;;4946846;28;20043;-65
2022/10/22 12:19:35;;;;;;;10.70;2.25;;;21.30;99.90;;;;;;4953348;28;20090;-65
2022/10/22 12:22:10;;;;;;;16.02;2.40;;;21.30;99.90;;;;;;4967275;28;20408;-64
2022/10/22 12:24:39;;;;;;;15.02;2.80;;;20.90;99.90;;;;;;4965628;28;20039;-65
2022/10/22 12:27:20;;;;;;;16.23;2.45;;;20.20;99.90;;;;;;4966827;28;20159;-64
2022/10/22 12:29:47;;;;;;;11.88;2.50;;;20.50;99.90;;;;;;4967883;28;20054;-64
2022/10/22 12:32:14;;;;;;;14.38;2.50;;;20.50;99.90;;;;;;4959105;28;20094;-65
2022/10/22 12:34:48;;;;;;;11.65;2.45;;;20.40;99.90;;;;;;4955846;29;20043;-64
2022/10/22 12:37:15;;;;;;;18.23;2.70;;;21.20;99.90;;;;;;4965655;28;20049;-66
2022/10/22 12:39:41;;;;;;;12.35;1.98;;;20.50;99.90;;;;;;4972040;28;20038;-65
2022/10/22 12:42:11;;;;;;;20.60;2.85;;;20.60;99.90;;;;;;4964713;28;20036;-65
2022/10/22 12:44:37;;;;;;;12.02;2.03;;;20.60;99.90;;;;;;4970941;28;20082;-65
2022/10/22 12:47:04;;;;;;;14.45;2.58;;;20.70;99.90;;;;;;4957646;28;20050;-65
2022/10/22 12:49:37;;;;;;;14.00;2.30;;;20.60;99.90;;;;;;4969898;28;20171;-65
2022/10/22 12:52:06;;;;;;;19.75;2.58;;;21.30;99.90;;;;;;4957032;28;20374;-65
2022/10/22 12:54:33;;;;;;;18.63;3.45;;;21.40;99.90;;;;;;4966177;28;20032;-64
2022/10/22 12:56:59;;;;;;;9.65;2.00;;;20.70;99.90;;;;;;4969219;28;20073;-66
2022/10/22 12:59:33;;;;;;;9.13;1.63;;;21.10;99.90;;;;;;4949085;28;20051;-64